createdAt,value
2023-01-30T00:00:41.000Z,1026.76
2023-01-30T00:01:43.000Z,1026.76
2023-01-30T00:02:41.000Z,1026.80
2023-01-30T00:03:42.000Z,1026.83
2023-01-30T00:04:41.000Z,1026.84
2023-01-30T00:05:41.000Z,1026.91
2023-01-30T00:06:41.000Z,1026.94
2023-01-30T00:07:42.000Z,1026.97
2023-01-30T00:08:42.000Z,1026.98
2023-01-30T00:09:41.000Z,1026.95
2023-01-30T00:10:43.000Z,1026.97
2023-01-30T00:11:42.000Z,1027.00
2023-01-30T00:12:41.000Z,1027.07
2023-01-30T00:13:42.000Z,1027.10
2023-01-30T00:14:41.000Z,1027.16
2023-01-30T00:15:42.000Z,1027.14
2023-01-30T00:16:41.000Z,1027.16
2023-01-30T00:17:41.000Z,1027.17
2023-01-30T00:18:42.000Z,1027.19
2023-01-30T00:19:41.000Z,1027.17
2023-01-30T00:20:41.000Z,1027.21
2023-01-30T00:21:41.000Z,1027.19
2023-01-30T00:22:41.000Z,1027.25
2023-01-30T00:23:42.000Z,1027.24
2023-01-30T00:24:41.000Z,1027.23
2023-01-30T00:25:43.000Z,1027.18
2023-01-30T00:26:41.000Z,1027.20
2023-01-30T00:27:41.000Z,1027.20
2023-01-30T00:28:41.000Z,1027.15
2023-01-30T00:29:41.000Z,1027.11
2023-01-30T00:30:41.000Z,1027.05
2023-01-30T00:31:41.000Z,1027.01
2023-01-30T00:32:41.000Z,1026.99
2023-01-30T00:33:41.000Z,1026.95
2023-01-30T00:34:41.000Z,1026.93
2023-01-30T00:35:45.000Z,1026.90
2023-01-30T00:36:41.000Z,1026.89
2023-01-30T00:37:41.000Z,1026.91
2023-01-30T00:38:41.000Z,1026.91
2023-01-30T00:39:41.000Z,1026.91
2023-01-30T00:40:41.000Z,1026.89
2023-01-30T00:41:46.000Z,1026.82
2023-01-30T00:42:46.000Z,1026.79
2023-01-30T00:43:46.000Z,1026.69
2023-01-30T00:44:46.000Z,1026.66
2023-01-30T00:45:46.000Z,1026.60
2023-01-30T00:46:46.000Z,1026.61
2023-01-30T00:47:42.000Z,1026.57
2023-01-30T00:48:41.000Z,1026.56
2023-01-30T00:49:41.000Z,1026.57
2023-01-30T00:50:41.000Z,1026.60
2023-01-30T00:51:41.000Z,1026.65
2023-01-30T00:52:41.000Z,1026.65
2023-01-30T00:53:41.000Z,1026.65
2023-01-30T00:54:41.000Z,1026.61
2023-01-30T00:55:41.000Z,1026.59
2023-01-30T00:56:41.000Z,1026.53
2023-01-30T00:57:42.000Z,1026.57
2023-01-30T00:58:41.000Z,1026.63
2023-01-30T00:59:41.000Z,1026.64
2023-01-30T01:00:41.000Z,1026.58
2023-01-30T01:01:41.000Z,1026.57
2023-01-30T01:02:41.000Z,1026.52
2023-01-30T01:03:41.000Z,1026.50
2023-01-30T01:04:43.000Z,1026.49
2023-01-30T01:05:41.000Z,1026.43
2023-01-30T01:06:41.000Z,1026.45
2023-01-30T01:07:41.000Z,1026.46
2023-01-30T01:08:41.000Z,1026.42
2023-01-30T01:09:41.000Z,1026.36
2023-01-30T01:10:41.000Z,1026.30
2023-01-30T01:11:41.000Z,1026.32
2023-01-30T01:12:42.000Z,1026.32
2023-01-30T01:13:41.000Z,1026.28
2023-01-30T01:14:41.000Z,1026.35
2023-01-30T01:15:41.000Z,1026.29
2023-01-30T01:16:41.000Z,1026.22
2023-01-30T01:17:41.000Z,1026.19
2023-01-30T01:18:41.000Z,1026.09
2023-01-30T01:19:40.000Z,1026.10
2023-01-30T01:20:41.000Z,1026.13
2023-01-30T01:21:40.000Z,1026.13
2023-01-30T01:22:40.000Z,1026.13
2023-01-30T01:23:40.000Z,1026.18
2023-01-30T01:24:40.000Z,1026.13
2023-01-30T01:25:40.000Z,1026.14
2023-01-30T01:26:41.000Z,1026.14
2023-01-30T01:27:41.000Z,1026.07
2023-01-30T01:28:41.000Z,1025.96
2023-01-30T01:29:41.000Z,1025.88
2023-01-30T01:30:40.000Z,1025.82
2023-01-30T01:31:42.000Z,1025.78
2023-01-30T01:32:41.000Z,1025.72
2023-01-30T01:33:41.000Z,1025.69
2023-01-30T01:34:41.000Z,1025.74
2023-01-30T01:35:41.000Z,1025.70
2023-01-30T01:36:40.000Z,1025.72
2023-01-30T01:37:41.000Z,1025.89
2023-01-30T01:38:41.000Z,1025.89
2023-01-30T01:39:46.000Z,1025.89
2023-01-30T01:40:46.000Z,1025.93
2023-01-30T01:41:41.000Z,1025.85
2023-01-30T01:42:41.000Z,1025.77
2023-01-30T01:43:51.000Z,1025.73
2023-01-30T01:44:51.000Z,1025.67
2023-01-30T01:45:42.000Z,1025.62
2023-01-30T01:46:48.000Z,1025.59
2023-01-30T01:47:58.000Z,1025.61
2023-01-30T01:48:48.000Z,1025.67
2023-01-30T01:49:41.000Z,1025.76
2023-01-30T01:50:51.000Z,1025.80
2023-01-30T01:51:52.000Z,1025.81
2023-01-30T01:52:41.000Z,1025.79
2023-01-30T01:53:51.000Z,1025.81
2023-01-30T01:54:46.000Z,1025.83
2023-01-30T01:55:45.000Z,1025.79
2023-01-30T01:56:44.000Z,1025.70
2023-01-30T01:57:50.000Z,1025.64
2023-01-30T01:58:49.000Z,1025.54
2023-01-30T01:59:49.000Z,1025.51
2023-01-30T02:00:41.000Z,1025.50
2023-01-30T02:01:40.000Z,1025.44
2023-01-30T02:02:46.000Z,1025.39
2023-01-30T02:03:44.000Z,1025.40
2023-01-30T02:04:49.000Z,1025.45
2023-01-30T02:05:46.000Z,1025.41
2023-01-30T02:06:41.000Z,1025.33
2023-01-30T02:07:49.000Z,1025.38
2023-01-30T02:08:48.000Z,1025.43
2023-01-30T02:09:41.000Z,1025.44
2023-01-30T02:10:51.000Z,1025.39
2023-01-30T02:11:50.000Z,1025.40
2023-01-30T02:12:41.000Z,1025.38
2023-01-30T02:13:43.000Z,1025.40
2023-01-30T02:14:41.000Z,1025.39
2023-01-30T02:15:41.000Z,1025.42
2023-01-30T02:16:44.000Z,1025.38
2023-01-30T02:17:40.000Z,1025.35
2023-01-30T02:18:43.000Z,1025.29
2023-01-30T02:19:51.000Z,1025.29
2023-01-30T02:20:51.000Z,1025.29
2023-01-30T02:21:51.000Z,1025.30
2023-01-30T02:22:53.000Z,1025.24
2023-01-30T02:23:51.000Z,1025.19
2023-01-30T02:24:51.000Z,1025.12
2023-01-30T02:26:01.000Z,1025.19
2023-01-30T02:26:56.000Z,1025.23
2023-01-30T02:28:04.000Z,1025.21
2023-01-30T02:29:03.000Z,1025.25
2023-01-30T02:29:51.000Z,1025.10
2023-01-30T02:30:58.000Z,1024.90
2023-01-30T02:32:04.000Z,1024.66
2023-01-30T02:33:00.000Z,1024.66
2023-01-30T02:34:06.000Z,1024.74
2023-01-30T02:35:01.000Z,1024.78
2023-01-30T02:35:51.000Z,1024.83
2023-01-30T02:37:04.000Z,1024.74
2023-01-30T02:38:05.000Z,1024.75
2023-01-30T02:39:01.000Z,1024.89
2023-01-30T02:40:05.000Z,1024.99
2023-01-30T02:40:51.000Z,1024.97
2023-01-30T02:41:51.000Z,1024.94
2023-01-30T02:42:58.000Z,1024.89
2023-01-30T02:43:51.000Z,1024.90
2023-01-30T02:44:53.000Z,1024.88
2023-01-30T02:45:51.000Z,1024.91
2023-01-30T02:47:04.000Z,1025.03
2023-01-30T02:47:49.000Z,1024.95
2023-01-30T02:48:52.000Z,1024.87
2023-01-30T02:49:49.000Z,1024.91
2023-01-30T02:50:46.000Z,1024.92
2023-01-30T02:51:43.000Z,1024.94
2023-01-30T02:52:42.000Z,1024.86
2023-01-30T02:53:42.000Z,1024.79
2023-01-30T02:54:41.000Z,1024.72
2023-01-30T02:55:41.000Z,1024.74
2023-01-30T02:56:47.000Z,1024.57
2023-01-30T02:57:41.000Z,1024.71
2023-01-30T02:58:58.000Z,1024.72
2023-01-30T02:59:46.000Z,1024.77
2023-01-30T03:01:02.000Z,1024.73
2023-01-30T03:02:07.000Z,1024.86
2023-01-30T03:02:51.000Z,1024.85
2023-01-30T03:03:57.000Z,1024.91
2023-01-30T03:04:51.000Z,1024.96
2023-01-30T03:06:09.000Z,1024.99
2023-01-30T03:06:57.000Z,1025.07
2023-01-30T03:07:54.000Z,1025.09
2023-01-30T03:08:54.000Z,1025.15
2023-01-30T03:10:01.000Z,1025.17
2023-01-30T03:10:50.000Z,1025.16
2023-01-30T03:12:02.000Z,1025.24
2023-01-30T03:12:51.000Z,1025.20
2023-01-30T03:13:52.000Z,1025.22
2023-01-30T03:14:51.000Z,1025.24
2023-01-30T03:15:54.000Z,1025.30
2023-01-30T03:16:43.000Z,1025.24
2023-01-30T03:17:45.000Z,1025.18
2023-01-30T03:18:43.000Z,1025.26
2023-01-30T03:19:41.000Z,1025.31
2023-01-30T03:20:41.000Z,1025.23
2023-01-30T03:21:42.000Z,1025.26
2023-01-30T03:22:41.000Z,1025.33
2023-01-30T03:23:43.000Z,1025.26
2023-01-30T03:24:42.000Z,1025.16
2023-01-30T03:25:43.000Z,1025.13
2023-01-30T03:26:51.000Z,1025.16
2023-01-30T03:27:42.000Z,1025.17
2023-01-30T03:28:42.000Z,1025.24
2023-01-30T03:29:41.000Z,1025.34
2023-01-30T03:30:41.000Z,1025.32
2023-01-30T03:31:41.000Z,1025.27
2023-01-30T03:32:41.000Z,1025.27
2023-01-30T03:33:41.000Z,1025.24
2023-01-30T03:34:41.000Z,1025.26
2023-01-30T03:35:42.000Z,1025.24
2023-01-30T03:36:41.000Z,1025.22
2023-01-30T03:37:42.000Z,1025.31
2023-01-30T03:38:41.000Z,1025.29
2023-01-30T03:39:41.000Z,1025.22
2023-01-30T03:40:41.000Z,1025.22
2023-01-30T03:41:41.000Z,1025.25
2023-01-30T03:42:41.000Z,1025.28
2023-01-30T03:43:41.000Z,1025.32
2023-01-30T03:44:41.000Z,1025.26
2023-01-30T03:45:41.000Z,1025.26
2023-01-30T03:46:41.000Z,1025.22
2023-01-30T03:47:41.000Z,1025.25
2023-01-30T03:48:41.000Z,1025.26
2023-01-30T03:49:41.000Z,1025.19
2023-01-30T03:50:41.000Z,1025.23
2023-01-30T03:51:40.000Z,1025.22
2023-01-30T03:52:41.000Z,1025.20
2023-01-30T03:53:41.000Z,1025.25
2023-01-30T03:54:40.000Z,1025.21
2023-01-30T03:55:42.000Z,1025.22
2023-01-30T03:56:41.000Z,1025.14
2023-01-30T03:57:41.000Z,1025.17
2023-01-30T03:58:41.000Z,1025.18
2023-01-30T03:59:41.000Z,1025.21
2023-01-30T04:00:41.000Z,1025.22
2023-01-30T04:01:40.000Z,1025.21
2023-01-30T04:02:41.000Z,1025.20
2023-01-30T04:03:40.000Z,1025.19
2023-01-30T04:04:41.000Z,1025.20
2023-01-30T04:05:41.000Z,1025.22
2023-01-30T04:06:41.000Z,1025.19
2023-01-30T04:07:41.000Z,1025.18
2023-01-30T04:08:41.000Z,1025.20
2023-01-30T04:09:40.000Z,1025.26
2023-01-30T04:10:40.000Z,1025.21
2023-01-30T04:11:41.000Z,1025.20
2023-01-30T04:12:41.000Z,1025.19
2023-01-30T04:13:40.000Z,1025.20
2023-01-30T04:14:40.000Z,1025.18
2023-01-30T04:15:41.000Z,1025.24
2023-01-30T04:16:41.000Z,1025.33
2023-01-30T04:17:42.000Z,1025.33
2023-01-30T04:18:41.000Z,1025.26
2023-01-30T04:19:41.000Z,1025.30
2023-01-30T04:20:41.000Z,1025.35
2023-01-30T04:21:41.000Z,1025.32
2023-01-30T04:22:40.000Z,1025.26
2023-01-30T04:23:41.000Z,1025.21
2023-01-30T04:24:40.000Z,1025.16
2023-01-30T04:25:44.000Z,1025.13
2023-01-30T04:26:41.000Z,1025.16
2023-01-30T04:27:41.000Z,1025.06
2023-01-30T04:28:41.000Z,1025.04
2023-01-30T04:29:40.000Z,1025.07
2023-01-30T04:30:40.000Z,1025.07
2023-01-30T04:31:40.000Z,1025.04
2023-01-30T04:32:41.000Z,1025.04
2023-01-30T04:33:41.000Z,1025.04
2023-01-30T04:34:42.000Z,1025.00
2023-01-30T04:35:50.000Z,1025.05
2023-01-30T04:36:40.000Z,1024.97
2023-01-30T04:37:40.000Z,1024.84
2023-01-30T04:38:40.000Z,1024.86
2023-01-30T04:39:40.000Z,1024.77
2023-01-30T04:40:46.000Z,1024.75
2023-01-30T04:41:40.000Z,1024.73
2023-01-30T04:42:40.000Z,1024.74
2023-01-30T04:43:40.000Z,1024.56
2023-01-30T04:44:40.000Z,1024.68
2023-01-30T04:45:42.000Z,1024.65
2023-01-30T04:46:40.000Z,1024.63
2023-01-30T04:47:40.000Z,1024.62
2023-01-30T04:48:41.000Z,1024.57
2023-01-30T04:49:41.000Z,1024.49
2023-01-30T04:50:42.000Z,1024.48
2023-01-30T04:51:40.000Z,1024.40
2023-01-30T04:52:41.000Z,1024.47
2023-01-30T04:53:40.000Z,1024.43
2023-01-30T04:54:40.000Z,1024.41
2023-01-30T04:55:40.000Z,1024.43
2023-01-30T04:56:40.000Z,1024.33
2023-01-30T04:57:40.000Z,1024.41
2023-01-30T04:58:40.000Z,1024.34
2023-01-30T04:59:40.000Z,1024.33
2023-01-30T05:00:40.000Z,1024.28
2023-01-30T05:01:40.000Z,1024.28
2023-01-30T05:02:40.000Z,1024.31
2023-01-30T05:03:40.000Z,1024.30
2023-01-30T05:04:40.000Z,1024.31
2023-01-30T05:05:43.000Z,1024.31
2023-01-30T05:06:40.000Z,1024.40
2023-01-30T05:07:40.000Z,1024.53
2023-01-30T05:08:40.000Z,1024.42
2023-01-30T05:09:40.000Z,1024.44
2023-01-30T05:10:40.000Z,1024.38
2023-01-30T05:11:40.000Z,1024.40
2023-01-30T05:12:40.000Z,1024.41
2023-01-30T05:13:42.000Z,1024.38
2023-01-30T05:14:40.000Z,1024.38
2023-01-30T05:15:42.000Z,1024.40
2023-01-30T05:16:40.000Z,1024.36
2023-01-30T05:17:40.000Z,1024.30
2023-01-30T05:18:41.000Z,1024.32
2023-01-30T05:19:40.000Z,1024.27
2023-01-30T05:20:40.000Z,1024.22
2023-01-30T05:21:41.000Z,1024.30
2023-01-30T05:22:40.000Z,1024.27
2023-01-30T05:23:41.000Z,1024.27
2023-01-30T05:24:41.000Z,1024.29
2023-01-30T05:25:41.000Z,1024.29
2023-01-30T05:26:41.000Z,1024.16
2023-01-30T05:27:41.000Z,1024.16
2023-01-30T05:28:41.000Z,1024.04
2023-01-30T05:29:41.000Z,1024.11
2023-01-30T05:30:40.000Z,1024.03
2023-01-30T05:31:41.000Z,1024.00
2023-01-30T05:32:40.000Z,1023.96
2023-01-30T05:33:41.000Z,1024.04
2023-01-30T05:34:41.000Z,1024.15
2023-01-30T05:35:46.000Z,1024.14
2023-01-30T05:36:41.000Z,1024.21
2023-01-30T05:37:41.000Z,1024.27
2023-01-30T05:38:41.000Z,1024.25
2023-01-30T05:39:41.000Z,1024.22
2023-01-30T05:40:41.000Z,1024.19
2023-01-30T05:41:41.000Z,1024.18
2023-01-30T05:42:41.000Z,1024.17
2023-01-30T05:43:41.000Z,1024.15
2023-01-30T05:44:41.000Z,1024.18
2023-01-30T05:45:40.000Z,1024.11
2023-01-30T05:46:41.000Z,1024.11
2023-01-30T05:47:41.000Z,1024.08
2023-01-30T05:48:41.000Z,1024.12
2023-01-30T05:49:41.000Z,1024.10
2023-01-30T05:50:41.000Z,1024.11
2023-01-30T05:51:41.000Z,1024.17
2023-01-30T05:52:40.000Z,1024.17
2023-01-30T05:53:40.000Z,1024.23
2023-01-30T05:54:41.000Z,1024.21
2023-01-30T05:55:42.000Z,1024.23
2023-01-30T05:56:40.000Z,1024.21
2023-01-30T05:57:40.000Z,1024.32
2023-01-30T05:58:41.000Z,1024.30
2023-01-30T05:59:40.000Z,1024.33
2023-01-30T06:00:40.000Z,1024.31
2023-01-30T06:01:40.000Z,1024.31
2023-01-30T06:02:41.000Z,1024.30
2023-01-30T06:03:41.000Z,1024.27
2023-01-30T06:04:40.000Z,1024.27
2023-01-30T06:05:41.000Z,1024.27
2023-01-30T06:06:40.000Z,1024.32
2023-01-30T06:07:40.000Z,1024.31
2023-01-30T06:08:41.000Z,1024.28
2023-01-30T06:09:40.000Z,1024.32
2023-01-30T06:10:40.000Z,1024.24
2023-01-30T06:11:40.000Z,1024.28
2023-01-30T06:12:40.000Z,1024.22
2023-01-30T06:13:41.000Z,1024.18
2023-01-30T06:14:40.000Z,1024.20
2023-01-30T06:15:40.000Z,1024.22
2023-01-30T06:16:40.000Z,1024.23
2023-01-30T06:17:41.000Z,1024.31
2023-01-30T06:18:41.000Z,1024.33
2023-01-30T06:19:40.000Z,1024.34
2023-01-30T06:20:46.000Z,1024.35
2023-01-30T06:21:40.000Z,1024.26
2023-01-30T06:22:40.000Z,1024.22
2023-01-30T06:23:41.000Z,1024.26
2023-01-30T06:24:40.000Z,1024.20
2023-01-30T06:25:48.000Z,1024.13
2023-01-30T06:26:40.000Z,1024.15
2023-01-30T06:27:43.000Z,1024.12
2023-01-30T06:28:41.000Z,1024.12
2023-01-30T06:29:40.000Z,1024.16
2023-01-30T06:30:40.000Z,1024.17
2023-01-30T06:31:41.000Z,1024.17
2023-01-30T06:32:41.000Z,1024.18
2023-01-30T06:33:42.000Z,1024.17
2023-01-30T06:34:40.000Z,1024.12
2023-01-30T06:35:41.000Z,1024.05
2023-01-30T06:36:42.000Z,1024.07
2023-01-30T06:37:43.000Z,1024.11
2023-01-30T06:38:40.000Z,1024.10
2023-01-30T06:39:40.000Z,1024.13
2023-01-30T06:40:43.000Z,1024.11
2023-01-30T06:41:40.000Z,1024.13
2023-01-30T06:42:44.000Z,1024.16
2023-01-30T06:43:40.000Z,1024.10
2023-01-30T06:44:40.000Z,1024.05
2023-01-30T06:45:40.000Z,1024.11
2023-01-30T06:46:40.000Z,1024.16
2023-01-30T06:47:46.000Z,1024.17
2023-01-30T06:48:40.000Z,1024.26
2023-01-30T06:49:40.000Z,1024.26
2023-01-30T06:50:40.000Z,1024.38
2023-01-30T06:51:40.000Z,1024.46
2023-01-30T06:52:42.000Z,1024.43
2023-01-30T06:53:40.000Z,1024.39
2023-01-30T06:54:41.000Z,1024.41
2023-01-30T06:55:41.000Z,1024.46
2023-01-30T06:56:41.000Z,1024.45
2023-01-30T06:57:41.000Z,1024.38
2023-01-30T06:58:41.000Z,1024.52
2023-01-30T06:59:41.000Z,1024.57
2023-01-30T07:00:41.000Z,1024.59
2023-01-30T07:01:41.000Z,1024.60
2023-01-30T07:02:40.000Z,1024.54
2023-01-30T07:03:41.000Z,1024.54
2023-01-30T07:04:41.000Z,1024.49
2023-01-30T07:05:42.000Z,1024.44
2023-01-30T07:06:41.000Z,1024.38
2023-01-30T07:07:41.000Z,1024.39
2023-01-30T07:08:41.000Z,1024.37
2023-01-30T07:09:41.000Z,1024.35
2023-01-30T07:10:41.000Z,1024.24
2023-01-30T07:11:41.000Z,1024.22
2023-01-30T07:12:41.000Z,1024.14
2023-01-30T07:13:41.000Z,1024.19
2023-01-30T07:14:41.000Z,1024.07
2023-01-30T07:15:41.000Z,1024.03
2023-01-30T07:16:41.000Z,1023.94
2023-01-30T07:17:41.000Z,1023.94
2023-01-30T07:18:41.000Z,1023.90
2023-01-30T07:19:41.000Z,1024.00
2023-01-30T07:20:45.000Z,1023.94
2023-01-30T07:21:40.000Z,1023.91
2023-01-30T07:22:41.000Z,1023.85
2023-01-30T07:23:42.000Z,1023.80
2023-01-30T07:24:43.000Z,1023.72
2023-01-30T07:25:40.000Z,1023.77
2023-01-30T07:26:41.000Z,1023.77
2023-01-30T07:27:41.000Z,1023.79
2023-01-30T07:28:40.000Z,1023.83
2023-01-30T07:29:41.000Z,1023.70
2023-01-30T07:30:41.000Z,1023.80
2023-01-30T07:31:41.000Z,1023.65
2023-01-30T07:32:40.000Z,1023.69
2023-01-30T07:33:40.000Z,1023.56
2023-01-30T07:34:41.000Z,1023.68
2023-01-30T07:35:41.000Z,1023.41
2023-01-30T07:36:40.000Z,1023.39
2023-01-30T07:37:43.000Z,1023.28
2023-01-30T07:38:41.000Z,1023.42
2023-01-30T07:39:41.000Z,1023.37
2023-01-30T07:40:41.000Z,1023.39
2023-01-30T07:41:41.000Z,1023.44
2023-01-30T07:42:41.000Z,1023.46
2023-01-30T07:43:40.000Z,1023.55
2023-01-30T07:44:41.000Z,1023.62
2023-01-30T07:45:46.000Z,1023.58
2023-01-30T07:46:40.000Z,1023.66
2023-01-30T07:47:40.000Z,1023.68
2023-01-30T07:48:43.000Z,1023.75
2023-01-30T07:49:40.000Z,1023.79
2023-01-30T07:50:41.000Z,1023.88
2023-01-30T07:51:41.000Z,1023.95
2023-01-30T07:52:41.000Z,1023.95
2023-01-30T07:53:40.000Z,1023.97
2023-01-30T07:54:40.000Z,1024.01
2023-01-30T07:55:41.000Z,1023.90
2023-01-30T07:56:40.000Z,1023.85
2023-01-30T07:57:41.000Z,1023.70
2023-01-30T07:58:40.000Z,1023.50
2023-01-30T07:59:41.000Z,1023.40
2023-01-30T08:00:41.000Z,1023.43
2023-01-30T08:01:40.000Z,1023.52
2023-01-30T08:02:41.000Z,1023.58
2023-01-30T08:03:42.000Z,1023.58
2023-01-30T08:04:40.000Z,1023.56
2023-01-30T08:05:41.000Z,1023.39
2023-01-30T08:06:41.000Z,1023.49
2023-01-30T08:07:40.000Z,1023.46
2023-01-30T08:08:41.000Z,1023.43
2023-01-30T08:09:41.000Z,1023.39
2023-01-30T08:10:41.000Z,1023.33
2023-01-30T08:11:40.000Z,1023.31
2023-01-30T08:12:41.000Z,1023.44
2023-01-30T08:13:40.000Z,1023.50
2023-01-30T08:14:41.000Z,1023.44
2023-01-30T08:15:41.000Z,1023.49
2023-01-30T08:16:41.000Z,1023.60
2023-01-30T08:17:41.000Z,1023.60
2023-01-30T08:18:41.000Z,1023.62
2023-01-30T08:19:40.000Z,1023.67
2023-01-30T08:20:41.000Z,1023.52
2023-01-30T08:21:40.000Z,1023.63
2023-01-30T08:22:40.000Z,1023.60
2023-01-30T08:23:41.000Z,1023.66
2023-01-30T08:24:40.000Z,1023.55
2023-01-30T08:25:41.000Z,1023.55
2023-01-30T08:26:40.000Z,1023.54
2023-01-30T08:27:40.000Z,1023.54
2023-01-30T08:28:41.000Z,1023.44
2023-01-30T08:29:42.000Z,1023.60
2023-01-30T08:30:41.000Z,1023.60
2023-01-30T08:31:41.000Z,1023.61
2023-01-30T08:32:40.000Z,1023.63
2023-01-30T08:33:41.000Z,1023.67
2023-01-30T08:34:40.000Z,1023.60
2023-01-30T08:35:40.000Z,1023.64
2023-01-30T08:36:40.000Z,1023.65
2023-01-30T08:37:41.000Z,1023.57
2023-01-30T08:38:40.000Z,1023.62
2023-01-30T08:39:40.000Z,1023.61
2023-01-30T08:40:41.000Z,1023.54
2023-01-30T08:41:42.000Z,1023.49
2023-01-30T08:42:43.000Z,1023.50
2023-01-30T08:43:40.000Z,1023.47
2023-01-30T08:44:40.000Z,1023.48
2023-01-30T08:45:40.000Z,1023.47
2023-01-30T08:46:40.000Z,1023.49
2023-01-30T08:47:41.000Z,1023.47
2023-01-30T08:48:43.000Z,1023.49
2023-01-30T08:49:40.000Z,1023.41
2023-01-30T08:50:40.000Z,1023.38
2023-01-30T08:51:41.000Z,1023.37
2023-01-30T08:52:40.000Z,1023.27
2023-01-30T08:53:40.000Z,1023.31
2023-01-30T08:54:40.000Z,1023.27
2023-01-30T08:55:42.000Z,1023.20
2023-01-30T08:56:40.000Z,1023.22
2023-01-30T08:57:40.000Z,1023.30
2023-01-30T08:58:42.000Z,1023.41
2023-01-30T08:59:40.000Z,1023.46
2023-01-30T09:00:43.000Z,1023.44
2023-01-30T09:01:40.000Z,1023.37
2023-01-30T09:02:41.000Z,1023.44
2023-01-30T09:03:41.000Z,1023.46
2023-01-30T09:04:41.000Z,1023.48
2023-01-30T09:05:41.000Z,1023.42
2023-01-30T09:06:41.000Z,1023.43
2023-01-30T09:07:40.000Z,1023.43
2023-01-30T09:08:41.000Z,1023.48
2023-01-30T09:09:41.000Z,1023.41
2023-01-30T09:10:40.000Z,1023.49
2023-01-30T09:11:40.000Z,1023.47
2023-01-30T09:12:41.000Z,1023.42
2023-01-30T09:13:42.000Z,1023.50
2023-01-30T09:14:40.000Z,1023.46
2023-01-30T09:15:42.000Z,1023.46
2023-01-30T09:16:40.000Z,1023.46
2023-01-30T09:18:05.000Z,1023.42
2023-01-30T09:18:42.000Z,1023.42
2023-01-30T09:19:40.000Z,1023.44
2023-01-30T09:20:40.000Z,1023.35
2023-01-30T09:21:40.000Z,1023.35
2023-01-30T09:22:40.000Z,1023.39
2023-01-30T09:23:40.000Z,1023.33
2023-01-30T09:24:40.000Z,1023.38
2023-01-30T09:25:44.000Z,1023.36
2023-01-30T09:26:43.000Z,1023.24
2023-01-30T09:27:46.000Z,1023.36
2023-01-30T09:28:40.000Z,1023.27
2023-01-30T09:29:40.000Z,1023.39
2023-01-30T09:30:40.000Z,1023.27
2023-01-30T09:31:40.000Z,1023.17
2023-01-30T09:32:40.000Z,1023.17
2023-01-30T09:33:40.000Z,1023.19
2023-01-30T09:34:40.000Z,1023.15
2023-01-30T09:35:40.000Z,1023.18
2023-01-30T09:36:40.000Z,1023.06
2023-01-30T09:37:49.000Z,1022.98
2023-01-30T09:38:40.000Z,1022.96
2023-01-30T09:39:40.000Z,1022.91
2023-01-30T09:40:50.000Z,1022.96
2023-01-30T09:41:59.000Z,1022.93
2023-01-30T09:43:04.000Z,1023.00
2023-01-30T09:43:50.000Z,1022.97
2023-01-30T09:44:55.000Z,1022.98
2023-01-30T09:45:51.000Z,1023.02
2023-01-30T09:46:51.000Z,1023.10
2023-01-30T09:48:04.000Z,1023.04
2023-01-30T09:49:07.000Z,1023.10
2023-01-30T09:50:13.000Z,1023.08
2023-01-30T09:50:54.000Z,1023.10
2023-01-30T09:51:53.000Z,1023.06
2023-01-30T09:53:03.000Z,1023.05
2023-01-30T09:54:00.000Z,1023.10
2023-01-30T09:54:43.000Z,1023.13
2023-01-30T09:55:41.000Z,1023.13
2023-01-30T09:56:40.000Z,1023.14
2023-01-30T09:57:42.000Z,1023.10
2023-01-30T09:58:47.000Z,1023.18
2023-01-30T09:59:53.000Z,1023.19
2023-01-30T10:00:41.000Z,1023.08
2023-01-30T10:01:54.000Z,1023.14
2023-01-30T10:02:58.000Z,1023.00
2023-01-30T10:03:54.000Z,1023.00
2023-01-30T10:04:46.000Z,1022.99
2023-01-30T10:05:51.000Z,1023.04
2023-01-30T10:06:57.000Z,1023.05
2023-01-30T10:07:55.000Z,1023.03
2023-01-30T10:08:51.000Z,1023.01
2023-01-30T10:10:06.000Z,1022.98
2023-01-30T10:10:47.000Z,1023.01
2023-01-30T10:11:51.000Z,1023.14
2023-01-30T10:12:51.000Z,1023.07
2023-01-30T10:14:00.000Z,1023.07
2023-01-30T10:15:04.000Z,1023.07
2023-01-30T10:15:51.000Z,1022.98
2023-01-30T10:17:09.000Z,1023.04
2023-01-30T10:18:00.000Z,1022.98
2023-01-30T10:18:51.000Z,1023.01
2023-01-30T10:20:04.000Z,1023.01
2023-01-30T10:21:14.000Z,1022.99
2023-01-30T10:22:14.000Z,1022.95
2023-01-30T10:23:00.000Z,1022.91
2023-01-30T10:24:03.000Z,1022.90
2023-01-30T10:25:01.000Z,1022.86
2023-01-30T10:25:48.000Z,1022.85
2023-01-30T10:26:41.000Z,1022.80
2023-01-30T10:27:48.000Z,1022.92
2023-01-30T10:28:55.000Z,1022.92
2023-01-30T10:29:46.000Z,1022.89
2023-01-30T10:30:44.000Z,1022.83
2023-01-30T10:31:45.000Z,1022.84
2023-01-30T10:32:46.000Z,1022.88
2023-01-30T10:33:56.000Z,1022.78
2023-01-30T10:34:47.000Z,1022.93
2023-01-30T10:35:42.000Z,1022.83
2023-01-30T10:36:57.000Z,1022.87
2023-01-30T10:37:58.000Z,1022.87
2023-01-30T10:38:47.000Z,1022.86
2023-01-30T10:39:53.000Z,1022.84
2023-01-30T10:40:47.000Z,1022.88
2023-01-30T10:41:52.000Z,1022.92
2023-01-30T10:42:51.000Z,1022.91
2023-01-30T10:43:52.000Z,1022.94
2023-01-30T10:44:41.000Z,1022.93
2023-01-30T10:45:54.000Z,1022.98
2023-01-30T10:46:50.000Z,1022.96
2023-01-30T10:48:04.000Z,1022.92
2023-01-30T10:49:01.000Z,1022.99
2023-01-30T10:49:47.000Z,1022.95
2023-01-30T10:50:49.000Z,1022.95
2023-01-30T10:52:02.000Z,1023.00
2023-01-30T10:52:51.000Z,1022.96
2023-01-30T10:53:53.000Z,1023.02
2023-01-30T10:55:03.000Z,1023.00
2023-01-30T10:55:46.000Z,1023.01
2023-01-30T10:56:57.000Z,1023.06
2023-01-30T10:57:49.000Z,1023.08
2023-01-30T10:58:52.000Z,1023.06
2023-01-30T10:59:53.000Z,1023.09
2023-01-30T11:00:58.000Z,1023.05
2023-01-30T11:01:53.000Z,1023.05
2023-01-30T11:03:01.000Z,1022.99
2023-01-30T11:03:51.000Z,1023.00
2023-01-30T11:04:54.000Z,1022.94
2023-01-30T11:05:47.000Z,1022.91
2023-01-30T11:06:41.000Z,1022.91
2023-01-30T11:07:42.000Z,1022.91
2023-01-30T11:08:41.000Z,1022.88
2023-01-30T11:09:44.000Z,1022.89
2023-01-30T11:10:40.000Z,1022.93
2023-01-30T11:11:48.000Z,1022.99
2023-01-30T11:12:40.000Z,1022.98
2023-01-30T11:13:40.000Z,1022.90
2023-01-30T11:14:50.000Z,1022.99
2023-01-30T11:15:43.000Z,1022.97
2023-01-30T11:16:52.000Z,1023.06
2023-01-30T11:17:41.000Z,1023.10
2023-01-30T11:18:46.000Z,1023.09
2023-01-30T11:19:40.000Z,1023.06
2023-01-30T11:20:43.000Z,1023.12
2023-01-30T11:21:47.000Z,1023.04
2023-01-30T11:22:49.000Z,1023.00
2023-01-30T11:23:41.000Z,1022.95
2023-01-30T11:24:43.000Z,1023.04
2023-01-30T11:25:47.000Z,1023.03
2023-01-30T11:26:41.000Z,1023.01
2023-01-30T11:27:42.000Z,1023.00
2023-01-30T11:28:42.000Z,1022.99
2023-01-30T11:30:04.000Z,1022.94
2023-01-30T11:30:41.000Z,1022.89
2023-01-30T11:31:41.000Z,1022.95
2023-01-30T11:32:42.000Z,1022.91
2023-01-30T11:33:41.000Z,1022.86
2023-01-30T11:34:42.000Z,1022.86
2023-01-30T11:35:50.000Z,1022.90
2023-01-30T11:36:41.000Z,1022.91
2023-01-30T11:37:43.000Z,1022.89
2023-01-30T11:38:57.000Z,1022.96
2023-01-30T11:39:48.000Z,1022.99
2023-01-30T11:40:41.000Z,1022.94
2023-01-30T11:41:42.000Z,1022.96
2023-01-30T11:42:48.000Z,1022.99
2023-01-30T11:43:41.000Z,1022.93
2023-01-30T11:44:41.000Z,1022.94
2023-01-30T11:45:46.000Z,1022.91
2023-01-30T11:46:41.000Z,1022.88
2023-01-30T11:47:50.000Z,1022.78
2023-01-30T11:48:51.000Z,1022.78
2023-01-30T11:49:47.000Z,1022.74
2023-01-30T11:50:43.000Z,1022.76
2023-01-30T11:51:44.000Z,1022.82
2023-01-30T11:52:43.000Z,1022.87
2023-01-30T11:53:51.000Z,1022.88
2023-01-30T11:54:43.000Z,1022.93
2023-01-30T11:55:41.000Z,1022.80
2023-01-30T11:56:51.000Z,1022.85
2023-01-30T11:57:49.000Z,1022.79
2023-01-30T11:58:51.000Z,1022.80
2023-01-30T11:59:57.000Z,1022.81
2023-01-30T12:00:45.000Z,1022.80
2023-01-30T12:01:41.000Z,1022.78
2023-01-30T12:02:42.000Z,1022.83
2023-01-30T12:03:47.000Z,1022.87
2023-01-30T12:04:42.000Z,1022.90
2023-01-30T12:05:44.000Z,1022.84